Time;durP1;ratioP1;P1;durP2;ratioP2;P2;SDS_P1;SDS_P2;PMS_P1;PMS_P2;Temp;Humidity;BMP_temperature;BMP_pressure;BME280_temperature;BME280_humidity;BME280_pressure;Samples;Min_cycle;Max_cycle;Signal;HPM_P1;HPM_P2
2021/03/07 00:02:23;;;;;;;16.83;6.27;;;;;;;4.32;51.61;101249.22;4875170;28;98515;-74
2021/03/07 00:04:49;;;;;;;15.33;7.23;;;;;;;4.37;51.59;101244.94;4859607;28;101654;-74
2021/03/07 00:07:15;;;;;;;13.30;6.50;;;;;;;4.23;52.08;101244.84;4876738;28;97309;-74
2021/03/07 00:09:40;;;;;;;12.87;6.73;;;;;;;4.28;52.22;101245.75;4860152;28;97052;-74
2021/03/07 00:12:06;;;;;;;11.00;5.70;;;;;;;4.32;51.85;101241.44;4887391;28;101044;-74
2021/03/07 00:14:32;;;;;;;13.10;5.90;;;;;;;4.30;52.09;101246.63;4890593;28;98465;-74
2021/03/07 00:16:57;;;;;;;15.53;5.80;;;;;;;4.34;52.15;101241.44;4860335;28;97077;-74
2021/03/07 00:19:23;;;;;;;13.80;6.70;;;;;;;4.39;52.26;101244.91;4843872;28;97053;-74
2021/03/07 00:21:48;;;;;;;13.37;6.40;;;;;;;4.43;52.42;101236.31;4843675;28;101324;-74
2021/03/07 00:24:14;;;;;;;14.43;6.30;;;;;;;4.31;52.33;101231.91;4858535;28;97279;-74
2021/03/07 00:26:40;;;;;;;14.67;6.43;;;;;;;4.37;52.33;101226.72;4875912;28;97070;-74
2021/03/07 00:29:05;;;;;;;13.87;6.00;;;;;;;4.28;52.60;101224.94;4876561;28;96543;-77
2021/03/07 00:31:31;;;;;;;14.00;6.83;;;;;;;4.34;52.55;101215.44;4859270;28;100010;-74
2021/03/07 00:33:57;;;;;;;12.27;6.37;;;;;;;4.35;52.88;101211.97;4863159;28;97902;-74
2021/03/07 00:36:22;;;;;;;13.90;6.67;;;;;;;4.30;53.01;101211.94;4873948;28;96662;-74
2021/03/07 00:38:48;;;;;;;13.17;6.87;;;;;;;4.33;52.71;101217.16;4876323;28;96963;-74
2021/03/07 00:41:13;;;;;;;14.83;6.87;;;;;;;4.30;53.23;101210.25;4859171;28;98147;-74
2021/03/07 00:43:39;;;;;;;17.77;7.20;;;;;;;4.27;53.08;101207.59;4859760;28;101151;-74
2021/03/07 00:46:06;;;;;;;14.37;7.13;;;;;;;4.26;53.14;101199.81;4858850;28;97056;-79
2021/03/07 00:48:32;;;;;;;13.80;7.23;;;;;;;4.27;53.17;101198.94;4875917;28;96796;-74
2021/03/07 00:50:58;;;;;;;11.07;6.17;;;;;;;4.36;53.15;101195.50;4859740;28;98372;-75
2021/03/07 00:53:24;;;;;;;12.23;6.43;;;;;;;4.39;53.32;101186.00;4874365;28;101474;-74
2021/03/07 00:55:49;;;;;;;13.40;6.83;;;;;;;4.39;53.06;101190.31;4859509;28;97388;-74
2021/03/07 00:58:15;;;;;;;14.90;7.67;;;;;;;4.43;53.11;101187.75;4858897;28;96937;-74
2021/03/07 01:00:41;;;;;;;14.17;7.23;;;;;;;4.40;52.96;101181.69;4859084;28;100995;-75
2021/03/07 01:03:07;;;;;;;13.77;5.90;;;;;;;4.41;52.82;101175.63;4858798;28;101784;-75
2021/03/07 01:05:33;;;;;;;11.17;6.63;;;;;;;4.44;52.96;101173.88;4859078;28;97036;-74
2021/03/07 01:07:59;;;;;;;15.40;7.37;;;;;;;4.47;53.04;101165.25;4859386;28;97033;-74
2021/03/07 01:10:32;;;;;;;14.63;6.57;;;;;;;4.35;53.22;101165.19;4858195;28;98466;-73
2021/03/07 01:12:58;;;;;;;11.93;6.20;;;;;;;4.29;53.67;101168.63;4874764;28;101131;-76
2021/03/07 01:15:28;;;;;;;11.07;6.23;;;;;;;4.23;53.79;101163.41;4841802;28;96827;-76
2021/03/07 01:17:53;;;;;;;13.47;6.80;;;;;;;4.29;53.61;101164.28;4860069;28;96985;-74
2021/03/07 01:20:20;;;;;;;10.93;6.10;;;;;;;4.27;53.85;101166.00;4877685;28;97395;-76
2021/03/07 01:22:46;;;;;;;11.73;6.30;;;;;;;4.24;53.91;101157.31;4861973;28;101098;-76
2021/03/07 01:25:12;;;;;;;11.30;6.03;;;;;;;4.22;54.20;101146.94;4876944;28;97418;-74
2021/03/07 01:27:38;;;;;;;10.23;6.00;;;;;;;4.26;53.79;101148.69;4877377;28;97327;-73
2021/03/07 01:30:06;;;;;;;13.60;6.20;;;;;;;4.18;54.20;101145.16;4861773;28;101300;-80
2021/03/07 01:32:32;;;;;;;11.80;6.97;;;;;;;4.21;54.07;101126.13;4877708;28;100944;-73
2021/03/07 01:34:57;;;;;;;10.50;6.33;;;;;;;4.21;54.30;101129.59;4877126;28;97161;-73
2021/03/07 01:37:23;;;;;;;12.13;6.20;;;;;;;4.18;54.47;101126.97;4893363;28;97180;-76
2021/03/07 01:39:49;;;;;;;11.90;6.93;;;;;;;4.22;54.43;101126.16;4877652;28;101530;-74
2021/03/07 01:42:14;;;;;;;10.00;5.60;;;;;;;4.18;54.83;101124.38;4877377;28;97545;-75
2021/03/07 01:44:40;;;;;;;10.27;6.13;;;;;;;4.19;54.77;101120.94;4877490;28;96842;-74
2021/03/07 01:47:06;;;;;;;12.27;6.30;;;;;;;4.21;54.44;101118.31;4877530;28;97094;-81
2021/03/07 01:49:32;;;;;;;11.70;6.40;;;;;;;4.25;54.67;101125.28;4877756;28;101086;-74
2021/03/07 01:51:57;;;;;;;11.00;6.20;;;;;;;4.24;54.54;101114.00;4862066;28;101603;-74
2021/03/07 01:54:23;;;;;;;12.47;6.40;;;;;;;4.25;54.72;101114.91;4892861;28;96646;-74
2021/03/07 01:56:51;;;;;;;11.40;6.03;;;;;;;4.25;54.88;101110.56;4878051;28;96852;-74
2021/03/07 01:59:21;;;;;;;10.73;5.70;;;;;;;4.41;54.26;101110.63;4876384;28;101426;-74
2021/03/07 02:01:48;;;;;;;8.90;5.43;;;;;;;4.27;54.47;101106.22;4877638;28;97504;-74
2021/03/07 02:04:14;;;;;;;11.07;5.67;;;;;;;4.26;54.56;101104.50;4849796;29;97014;-74
2021/03/07 02:06:39;;;;;;;11.80;5.07;;;;;;;4.23;54.92;101103.63;4840963;28;97152;-74
2021/03/07 02:09:05;;;;;;;9.67;5.23;;;;;;;4.24;54.54;101098.41;4835374;29;100826;-85
2021/03/07 02:11:32;;;;;;;9.97;5.37;;;;;;;4.20;54.50;101104.47;4838782;28;100653;-74
2021/03/07 02:13:59;;;;;;;8.47;5.20;;;;;;;4.25;54.69;101096.72;4857364;28;97276;-74
2021/03/07 02:16:25;;;;;;;8.13;5.00;;;;;;;4.24;54.68;101094.94;4858509;28;96975;-74
2021/03/07 02:18:53;;;;;;;10.70;5.10;;;;;;;4.24;54.87;101080.22;4858461;28;98518;-74
2021/03/07 02:21:25;;;;;;;7.97;5.07;;;;;;;4.25;54.87;101084.56;4860078;28;101820;-74
2021/03/07 02:23:58;;;;;;;;;;;;;;;4.20;55.20;101085.41;4861155;28;96742;-75
2021/03/07 02:26:24;;;;;;;9.83;5.40;;;;;;;4.21;54.83;101079.34;4860695;28;97338;-74
2021/03/07 02:28:49;;;;;;;11.03;5.47;;;;;;;4.18;55.36;101079.34;4861354;28;101114;-74
2021/03/07 02:31:17;;;;;;;8.60;4.90;;;;;;;4.15;55.15;101071.53;4876133;28;100821;-74
2021/03/07 02:33:43;;;;;;;11.73;5.17;;;;;;;4.20;55.00;101070.69;4876796;28;97053;-74
2021/03/07 02:36:12;;;;;;;7.80;4.83;;;;;;;4.29;54.83;101067.25;4860674;28;97083;-80
2021/03/07 02:38:39;;;;;;;7.97;4.90;;;;;;;4.26;55.34;101068.09;4878578;28;100798;-74
2021/03/07 02:41:06;;;;;;;8.37;5.17;;;;;;;4.29;55.10;101062.91;4875986;28;97970;-75
2021/03/07 02:43:37;;;;;;;12.33;5.53;;;;;;;4.31;55.29;101053.41;4845975;28;96671;-76
2021/03/07 02:46:03;;;;;;;8.83;5.77;;;;;;;4.35;54.90;101053.41;4861759;28;96804;-74
2021/03/07 02:48:29;;;;;;;9.30;6.03;;;;;;;4.28;55.54;101047.34;4860186;28;99145;-75
2021/03/07 02:50:59;;;;;;;13.07;6.13;;;;;;;4.23;55.29;101044.72;4877295;28;98258;-74
2021/03/07 02:53:27;;;;;;;8.00;5.30;;;;;;;4.27;55.41;101033.44;4860559;28;97010;-76
2021/03/07 02:55:57;;;;;;;11.50;6.70;;;;;;;4.27;55.51;101035.19;4869938;28;96918;-74
2021/03/07 02:58:23;;;;;;;10.20;6.90;;;;;;;4.32;55.46;101036.94;4863341;28;102973;-75
2021/03/07 03:00:54;;;;;;;11.30;7.30;;;;;;;4.30;55.29;101036.09;4864219;28;100960;-74
2021/03/07 03:03:25;;;;;;;11.23;7.83;;;;;;;4.23;55.29;101026.50;4863955;28;96655;-74
2021/03/07 03:05:52;;;;;;;13.20;7.93;;;;;;;4.34;55.20;101034.34;4880369;28;96753;-74
2021/03/07 03:08:18;;;;;;;14.47;9.10;;;;;;;4.28;55.24;101026.53;4879023;28;101921;-74
2021/03/07 03:10:44;;;;;;;13.33;9.50;;;;;;;4.31;55.35;101026.56;4871364;28;100943;-74
2021/03/07 03:13:10;;;;;;;14.93;10.80;;;;;;;4.31;55.36;101026.56;4859081;28;96729;-74
2021/03/07 03:15:37;;;;;;;17.87;11.80;;;;;;;4.33;55.21;101024.78;4868738;28;96794;-74
2021/03/07 03:18:03;;;;;;;16.33;11.43;;;;;;;4.26;55.41;101020.47;4864795;28;103219;-75
2021/03/07 03:20:29;;;;;;;18.70;13.47;;;;;;;4.26;55.52;101023.06;4859952;28;101319;-76
2021/03/07 03:22:55;;;;;;;15.30;12.43;;;;;;;4.21;55.65;101014.38;4866255;28;96974;-74
2021/03/07 03:25:20;;;;;;;19.67;13.23;;;;;;;4.25;55.76;101006.59;4878824;28;97068;-74
2021/03/07 03:27:46;;;;;;;20.30;14.27;;;;;;;4.28;55.71;101010.94;4879755;28;97706;-74
2021/03/07 03:30:18;;;;;;;19.67;14.57;;;;;;;4.25;55.52;101006.59;4896355;28;97834;-74
2021/03/07 03:32:44;;;;;;;18.02;13.27;;;;;;;4.24;55.68;101004.84;4896394;28;96688;-74
2021/03/07 03:35:12;;;;;;;19.83;13.13;;;;;;;4.23;55.81;101005.72;4879446;28;97256;-75
2021/03/07 03:37:41;;;;;;;16.97;13.57;;;;;;;4.21;55.92;101001.38;4847584;28;101836;-75
2021/03/07 03:40:09;;;;;;;19.00;12.80;;;;;;;4.23;56.09;100997.94;4869377;28;101374;-80
2021/03/07 03:42:41;;;;;;;15.13;11.83;;;;;;;4.21;55.94;100990.97;4879697;28;97313;-76
2021/03/07 03:45:09;;;;;;;16.43;11.57;;;;;;;4.24;55.89;100996.19;4862541;28;97068;-80
2021/03/07 03:47:38;;;;;;;15.50;10.53;;;;;;;4.22;55.98;101001.41;4891295;28;98021;-75
2021/03/07 03:50:05;;;;;;;14.20;9.57;;;;;;;4.22;55.81;100993.59;4843933;28;101590;-74
2021/03/07 03:52:35;;;;;;;12.53;9.60;;;;;;;4.30;55.68;100986.69;4860216;28;96843;-75
2021/03/07 03:55:16;;;;;;;10.93;8.10;;;;;;;4.27;55.89;100985.81;4860782;28;96805;-74
2021/03/07 03:57:42;;;;;;;9.37;7.27;;;;;;;4.28;56.07;100990.16;4876570;28;97884;-74
2021/03/07 04:00:13;;;;;;;11.90;7.27;;;;;;;4.18;55.90;100991.84;4859782;28;97461;-81
2021/03/07 04:02:39;;;;;;;9.57;6.83;;;;;;;4.18;56.03;100985.78;4860382;28;96867;-74
2021/03/07 04:05:07;;;;;;;8.73;5.90;;;;;;;4.21;55.84;100981.44;4859968;28;97216;-74
2021/03/07 04:07:33;;;;;;;9.07;6.23;;;;;;;4.24;55.62;100978.84;4859755;28;101558;-74
2021/03/07 04:09:59;;;;;;;10.37;6.57;;;;;;;4.29;55.49;100987.53;4871484;28;101119;-74
2021/03/07 04:12:25;;;;;;;9.43;5.93;;;;;;;4.30;55.94;100980.59;4885463;28;97930;-74
2021/03/07 04:14:55;;;;;;;7.07;4.63;;;;;;;4.30;55.45;100984.09;4874817;28;96999;-74
2021/03/07 04:17:25;;;;;;;7.30;5.47;;;;;;;4.32;55.54;100976.28;4859193;28;97979;-74
2021/03/07 04:19:55;;;;;;;8.70;5.00;;;;;;;4.34;55.66;100966.78;4860015;28;101193;-74
2021/03/07 04:22:21;;;;;;;6.40;4.43;;;;;;;4.36;55.63;100957.22;4875193;28;96746;-74
2021/03/07 04:24:47;;;;;;;6.77;4.90;;;;;;;4.30;55.33;100960.72;4840736;29;96930;-74
2021/03/07 04:27:14;;;;;;;6.50;4.77;;;;;;;4.32;55.36;100956.34;4858600;28;101119;-74
2021/03/07 04:29:40;;;;;;;8.53;5.50;;;;;;;4.32;55.54;100945.97;4893099;28;97970;-74
2021/03/07 04:32:06;;;;;;;7.10;4.23;;;;;;;4.30;55.37;100954.59;4895003;28;96797;-75
2021/03/07 04:34:33;;;;;;;6.87;4.83;;;;;;;4.30;55.53;100949.41;4876117;28;96915;-74
2021/03/07 04:36:59;;;;;;;7.17;4.90;;;;;;;4.25;55.58;100949.44;4860104;28;97989;-75
2021/03/07 04:39:24;;;;;;;9.33;5.30;;;;;;;4.24;55.66;100952.88;4858955;28;97958;-75
2021/03/07 04:41:50;;;;;;;8.70;5.37;;;;;;;4.32;54.85;100945.09;4844654;28;96735;-74
2021/03/07 04:44:16;;;;;;;10.13;5.93;;;;;;;4.37;55.24;100942.50;4859535;28;97303;-74
2021/03/07 04:46:42;;;;;;;7.83;5.70;;;;;;;4.36;54.95;100944.22;4859066;28;101132;-74
2021/03/07 04:49:08;;;;;;;11.57;5.90;;;;;;;4.31;55.22;100941.63;4842885;28;101349;-80
2021/03/07 04:51:33;;;;;;;8.17;5.63;;;;;;;4.39;55.48;100941.63;4858240;28;96723;-74
2021/03/07 04:53:59;;;;;;;10.70;6.57;;;;;;;4.36;55.30;100936.41;4843416;28;96953;-75
2021/03/07 04:56:31;;;;;;;7.90;5.87;;;;;;;4.35;55.40;100944.22;4842926;28;101581;-74
2021/03/07 04:58:57;;;;;;;9.48;6.60;;;;;;;4.31;55.56;100936.44;4880709;28;98113;-74
2021/03/07 05:01:23;;;;;;;8.47;6.57;;;;;;;4.29;55.21;100932.97;4877724;28;98086;-74
2021/03/07 05:03:51;;;;;;;8.00;6.10;;;;;;;4.27;55.48;100936.41;4873068;28;96950;-74
2021/03/07 05:06:16;;;;;;;9.50;6.60;;;;;;;4.27;55.59;100939.88;4874348;28;97651;-74
2021/03/07 05:08:42;;;;;;;8.77;6.10;;;;;;;4.34;55.15;100932.13;4859474;28;101546;-74
2021/03/07 05:11:08;;;;;;;8.47;5.73;;;;;;;4.31;55.38;100944.22;4859527;28;96685;-80
2021/03/07 05:13:33;;;;;;;9.33;6.47;;;;;;;4.30;55.80;100933.81;4858400;28;96978;-74
2021/03/07 05:15:59;;;;;;;11.60;6.80;;;;;;;4.37;55.21;100930.38;4842661;28;100928;-75
2021/03/07 05:18:25;;;;;;;9.80;6.93;;;;;;;4.40;55.78;100930.38;4857789;28;101364;-74
2021/03/07 05:20:50;;;;;;;10.60;7.47;;;;;;;4.40;55.72;100927.78;4842872;28;96725;-77
2021/03/07 05:23:16;;;;;;;10.73;7.37;;;;;;;4.42;55.47;100919.97;4857420;28;97061;-80
2021/03/07 05:25:41;;;;;;;13.57;8.03;;;;;;;4.38;55.68;100910.44;4864600;28;97408;-74
2021/03/07 05:28:07;;;;;;;12.40;8.37;;;;;;;4.36;56.09;100914.75;4861018;28;97832;-75
2021/03/07 05:30:33;;;;;;;14.63;8.47;;;;;;;4.45;55.33;100906.97;4867229;28;96614;-74
2021/03/07 05:32:58;;;;;;;12.17;8.47;;;;;;;4.36;55.40;100910.44;4891902;28;96957;-76
2021/03/07 05:35:24;;;;;;;11.07;7.93;;;;;;;4.34;55.14;100917.38;4876550;28;101238;-75
2021/03/07 05:37:50;;;;;;;11.63;7.60;;;;;;;4.30;55.51;100908.72;4857570;28;101147;-75
2021/03/07 05:40:16;;;;;;;10.70;6.60;;;;;;;4.34;55.25;100906.13;4873760;28;96818;-75
2021/03/07 05:42:41;;;;;;;13.57;7.30;;;;;;;4.36;54.99;100900.03;4890700;28;96806;-75
2021/03/07 05:45:08;;;;;;;10.20;6.53;;;;;;;4.38;55.09;100900.91;4858194;28;101233;-75
2021/03/07 05:47:33;;;;;;;10.00;6.57;;;;;;;4.38;55.20;100900.03;4873924;28;97946;-75
2021/03/07 05:49:59;;;;;;;11.00;6.53;;;;;;;4.35;55.32;100892.25;4874570;28;96888;-76
2021/03/07 05:52:25;;;;;;;8.93;6.23;;;;;;;4.27;55.71;100889.63;4858322;28;97080;-75
2021/03/07 05:54:51;;;;;;;8.27;5.83;;;;;;;4.29;55.26;100891.38;4868853;28;101428;-75
2021/03/07 05:57:20;;;;;;;7.10;5.13;;;;;;;4.28;55.38;100888.78;4861137;28;101497;-74
2021/03/07 05:59:46;;;;;;;9.77;6.20;;;;;;;4.22;55.50;100892.25;4877753;28;97047;-75
2021/03/07 06:02:14;;;;;;;8.53;5.97;;;;;;;4.22;55.40;100891.38;4876894;28;97348;-80
2021/03/07 06:04:40;;;;;;;7.47;5.37;;;;;;;4.26;54.91;100885.31;4876765;28;98195;-75
2021/03/07 06:07:06;;;;;;;7.20;5.43;;;;;;;4.30;55.15;100887.03;4893242;28;97822;-76
2021/03/07 06:09:31;;;;;;;9.00;5.33;;;;;;;4.36;54.71;100889.63;4876961;28;96718;-75
2021/03/07 06:12:01;;;;;;;7.97;5.43;;;;;;;4.43;54.46;100878.38;4843708;28;97007;-74
2021/03/07 06:14:29;;;;;;;8.93;5.70;;;;;;;4.36;54.52;100887.03;4859348;28;101221;-75
2021/03/07 06:17:02;;;;;;;8.73;6.23;;;;;;;4.34;54.84;100888.78;4862139;28;97770;-75
2021/03/07 06:19:28;;;;;;;9.33;5.77;;;;;;;4.27;54.96;100885.28;4861117;28;97336;-74
2021/03/07 06:21:54;;;;;;;9.50;6.23;;;;;;;4.32;55.07;100888.78;4862239;28;96978;-74
2021/03/07 06:24:37;;;;;;;10.03;6.57;;;;;;;4.36;54.91;100876.63;4860384;28;101286;-74
2021/03/07 06:27:13;;;;;;;12.73;6.90;;;;;;;4.35;54.42;100884.44;4846125;28;101498;-76
2021/03/07 06:29:58;;;;;;;9.83;5.83;;;;;;;4.40;54.31;100880.13;4877281;28;96952;-76
2021/03/07 06:32:25;;;;;;;10.40;6.63;;;;;;;4.41;54.38;100880.09;4878140;28;97167;-74
2021/03/07 06:34:51;;;;;;;10.97;7.03;;;;;;;4.40;54.22;100877.53;4861526;28;97470;-74
2021/03/07 06:37:17;;;;;;;9.00;6.70;;;;;;;4.40;54.30;100880.13;4860443;28;100742;-76
2021/03/07 06:39:43;;;;;;;9.43;6.10;;;;;;;4.40;54.04;100878.38;4846116;28;96868;-76
2021/03/07 06:42:10;;;;;;;8.93;6.10;;;;;;;4.38;53.67;100880.13;4846148;28;96885;-77
2021/03/07 06:44:37;;;;;;;11.40;6.90;;;;;;;4.50;53.63;100877.50;4876910;28;98463;-74
2021/03/07 06:47:11;;;;;;;11.10;7.07;;;;;;;4.39;53.67;100876.63;4861514;28;99930;-77
2021/03/07 06:49:38;;;;;;;10.97;6.27;;;;;;;4.44;53.79;100868.84;4856855;29;98179;-76
2021/03/07 06:52:19;;;;;;;8.97;6.50;;;;;;;4.40;53.71;100870.59;4860358;28;96907;-75
2021/03/07 06:55:02;;;;;;;13.33;8.40;;;;;;;4.46;53.32;100865.38;4855399;28;97468;-76
2021/03/07 06:57:28;;;;;;;12.50;8.37;;;;;;;4.52;53.31;100849.78;4874684;28;98572;-76
2021/03/07 06:59:54;;;;;;;12.43;8.07;;;;;;;4.58;53.15;100850.66;4856667;29;96826;-76
2021/03/07 07:02:19;;;;;;;11.23;6.93;;;;;;;4.54;53.23;100858.44;4860917;28;97150;-76
2021/03/07 07:04:45;;;;;;;10.10;6.83;;;;;;;4.52;53.30;100854.13;4880245;28;97977;-76
2021/03/07 07:07:19;;;;;;;10.20;6.97;;;;;;;4.57;53.39;100848.91;4860230;28;101275;-83
2021/03/07 07:09:47;;;;;;;11.97;7.60;;;;;;;4.66;53.39;100851.50;4861504;28;97314;-76
2021/03/07 07:12:24;;;;;;;10.30;6.60;;;;;;;4.66;53.29;100852.38;4861050;28;97237;-82
2021/03/07 07:15:10;;;;;;;9.90;6.97;;;;;;;4.72;53.35;100852.34;4863581;28;100577;-79
2021/03/07 07:17:36;;;;;;;9.90;6.77;;;;;;;4.75;52.98;100846.28;4858341;28;100964;-78
2021/03/07 07:20:05;;;;;;;12.53;6.90;;;;;;;4.68;52.92;100849.75;4847871;28;97036;-77
2021/03/07 07:22:30;;;;;;;11.50;7.17;;;;;;;4.68;53.54;100850.66;4877127;28;97378;-77
2021/03/07 07:24:56;;;;;;;10.53;6.73;;;;;;;4.62;53.37;100848.03;4872492;28;101009;-77
2021/03/07 07:27:22;;;;;;;11.37;6.97;;;;;;;4.66;53.86;100849.78;4845614;29;100920;-78
2021/03/07 07:29:48;;;;;;;12.30;7.40;;;;;;;4.62;53.35;100849.75;4836582;28;97317;-77
2021/03/07 07:32:34;;;;;;;11.97;7.00;;;;;;;4.68;53.38;100844.56;4858278;28;97510;-79
2021/03/07 07:35:07;;;;;;;13.27;7.83;;;;;;;4.69;53.37;100844.56;4878145;28;101561;-77
2021/03/07 07:37:36;;;;;;;11.90;7.23;;;;;;;4.72;53.28;100839.34;4860401;28;101884;-78
2021/03/07 07:40:03;;;;;;;13.53;8.07;;;;;;;4.70;53.16;100838.47;4880992;28;96756;-76
2021/03/07 07:42:30;;;;;;;12.87;6.90;;;;;;;4.87;52.99;100838.44;4849801;28;97615;-77
2021/03/07 07:44:59;;;;;;;12.87;7.63;;;;;;;4.86;52.99;100831.53;4881532;28;101274;-77
2021/03/07 07:47:40;;;;;;;13.03;7.93;;;;;;;4.88;53.25;100828.91;4854222;28;97716;-79
2021/03/07 07:50:06;;;;;;;14.40;8.60;;;;;;;4.94;53.06;100832.34;4842600;28;98624;-77
2021/03/07 07:52:32;;;;;;;16.40;8.40;;;;;;;5.06;52.72;100822.78;4860870;28;97316;-77
2021/03/07 07:55:00;;;;;;;12.37;7.83;;;;;;;4.98;53.06;100817.63;4876067;28;101530;-78
2021/03/07 07:57:32;;;;;;;12.87;8.20;;;;;;;4.98;53.19;100818.47;4891774;28;101714;-77
2021/03/07 08:00:30;;;;;;;13.77;7.97;;;;;;;5.03;53.03;100818.44;4878446;28;97211;-77
2021/03/07 08:02:57;;;;;;;10.33;7.27;;;;;;;5.12;53.01;100814.94;4856749;28;96997;-78
2021/03/07 08:05:24;;;;;;;10.43;6.93;;;;;;;5.04;52.83;100806.31;4867414;28;97944;-75
2021/03/07 08:08:03;;;;;;;12.50;7.83;;;;;;;5.10;53.26;100811.50;4884669;28;97945;-76
2021/03/07 08:10:49;;;;;;;13.70;8.13;;;;;;;5.09;53.03;100802.84;4860407;28;98074;-79
2021/03/07 08:13:27;;;;;;;10.77;7.30;;;;;;;5.22;52.85;100801.03;4884301;28;97219;-78
2021/03/07 08:15:57;;;;;;;11.33;7.53;;;;;;;5.18;53.29;100804.53;4872379;28;98173;-77
2021/03/07 08:18:43;;;;;;;11.40;7.50;;;;;;;5.23;52.98;100800.16;4869131;28;97613;-79
2021/03/07 08:21:09;;;;;;;12.00;7.93;;;;;;;5.32;53.04;100801.84;4900213;28;97221;-79
2021/03/07 08:24:00;;;;;;;13.37;7.70;;;;;;;5.45;52.72;100798.31;4852034;28;97180;-80
2021/03/07 08:26:48;;;;;;;13.83;7.57;;;;;;;5.47;52.59;100787.88;4900715;28;98062;-77
2021/03/07 08:29:45;;;;;;;15.57;7.23;;;;;;;5.49;51.97;100793.94;4847935;28;101954;-84
2021/03/07 08:32:26;;;;;;;12.07;7.60;;;;;;;5.46;52.85;100787.03;4851869;28;96866;-77
2021/03/07 08:34:52;;;;;;;11.13;6.60;;;;;;;5.47;52.38;100787.88;4869696;28;97048;-76
2021/03/07 08:37:18;;;;;;;11.17;6.93;;;;;;;5.48;52.32;100789.63;4874678;28;98097;-75
2021/03/07 08:39:44;;;;;;;13.30;6.97;;;;;;;5.52;52.53;100778.31;4878507;28;99524;-77
2021/03/07 08:42:09;;;;;;;12.10;6.83;;;;;;;5.66;52.45;100777.34;4879489;28;97224;-75
2021/03/07 08:44:37;;;;;;;14.40;7.00;;;;;;;5.64;52.02;100783.44;4878053;28;97293;-76
2021/03/07 08:47:03;;;;;;;14.83;6.70;;;;;;;5.49;52.53;100778.31;4862587;28;101335;-74
2021/03/07 08:49:31;;;;;;;14.30;7.67;;;;;;;5.49;52.48;100771.38;4861558;28;101204;-75
2021/03/07 08:52:00;;;;;;;11.67;7.50;;;;;;;5.57;52.36;100764.38;4878488;28;96703;-74
2021/03/07 08:54:29;;;;;;;11.20;6.93;;;;;;;5.57;52.30;100767.00;4854108;28;96994;-75
2021/03/07 08:56:55;;;;;;;9.77;6.63;;;;;;;5.59;51.80;100765.25;4842204;28;101480;-74
2021/03/07 08:59:28;;;;;;;10.47;7.10;;;;;;;5.62;51.97;100756.56;4866672;28;101209;-74
2021/03/07 09:01:54;;;;;;;11.73;7.73;;;;;;;5.61;52.46;100760.91;4877903;28;97219;-74
2021/03/07 09:04:21;;;;;;;12.47;7.13;;;;;;;5.67;51.80;100758.25;4868325;28;96990;-74
2021/03/07 09:06:47;;;;;;;12.23;7.20;;;;;;;5.63;51.54;100753.94;4856831;28;101883;-74
2021/03/07 09:09:18;;;;;;;9.93;6.47;;;;;;;5.82;50.87;100754.66;4859407;28;98475;-80
2021/03/07 09:11:54;;;;;;;9.90;6.17;;;;;;;5.80;50.92;100739.94;4871554;28;97829;-75
2021/03/07 09:14:35;;;;;;;10.33;5.80;;;;;;;5.80;50.32;100764.22;4860913;28;97531;-76
2021/03/07 09:17:04;;;;;;;9.32;5.80;;;;;;;5.79;50.13;100759.91;4874553;28;98033;-74
2021/03/07 09:19:40;;;;;;;8.40;5.40;;;;;;;5.85;49.44;100751.19;4857180;28;98615;-74
2021/03/07 09:22:19;;;;;;;11.10;6.30;;;;;;;5.76;50.60;100753.84;4873260;28;96697;-77
2021/03/07 09:25:00;;;;;;;10.53;5.77;;;;;;;5.76;50.42;100754.72;4859748;28;97663;-76
2021/03/07 09:27:37;;;;;;;8.87;6.13;;;;;;;5.75;50.35;100752.13;4872347;28;97948;-75
2021/03/07 09:30:08;;;;;;;9.53;6.23;;;;;;;5.73;50.14;100749.53;4872377;28;97933;-75
2021/03/07 09:32:42;;;;;;;7.47;5.90;;;;;;;5.74;50.34;100742.59;4894284;28;96762;-75
2021/03/07 09:35:20;;;;;;;6.77;5.50;;;;;;;5.75;50.64;100742.56;4853469;28;97417;-79
2021/03/07 09:37:56;;;;;;;8.47;5.87;;;;;;;5.81;49.77;100739.91;4856351;28;101623;-75
2021/03/07 09:40:22;;;;;;;10.57;6.50;;;;;;;5.76;49.69;100739.09;4857583;28;101280;-77
2021/03/07 09:42:56;;;;;;;13.70;7.97;;;;;;;5.66;49.41;100730.47;4867237;28;96921;-76
2021/03/07 09:45:22;;;;;;;12.47;8.63;;;;;;;5.69;49.46;100740.00;4868830;28;97509;-76
2021/03/07 09:47:49;;;;;;;11.17;7.33;;;;;;;5.78;49.66;100739.91;4871874;28;98670;-75
2021/03/07 09:50:15;;;;;;;8.27;5.90;;;;;;;5.72;49.02;100732.16;4846803;28;99151;-77
2021/03/07 09:52:42;;;;;;;8.57;5.93;;;;;;;5.71;48.67;100737.41;4848968;28;98401;-76
2021/03/07 09:55:08;;;;;;;7.17;5.03;;;;;;;5.76;48.73;100718.25;4856472;28;96923;-76
2021/03/07 09:57:34;;;;;;;7.93;5.30;;;;;;;5.73;48.59;100733.91;4841911;28;98803;-74
2021/03/07 09:59:59;;;;;;;6.37;5.07;;;;;;;5.80;48.74;100727.75;4840728;28;101432;-75
2021/03/07 10:02:36;;;;;;;11.37;6.03;;;;;;;5.86;48.22;100724.25;4855776;28;97365;-74
2021/03/07 10:05:12;;;;;;;15.27;5.83;;;;;;;5.77;47.21;100722.56;4856907;28;97265;-75
2021/03/07 10:07:38;;;;;;;8.67;5.73;;;;;;;5.80;47.62;100730.38;4856605;28;98459;-75
2021/03/07 10:10:15;;;;;;;18.87;6.90;;;;;;;5.76;47.77;100713.03;4870547;28;98510;-74
2021/03/07 10:12:54;;;;;;;10.67;5.80;;;;;;;5.75;47.84;100732.13;4849108;28;96687;-76
2021/03/07 10:15:29;;;;;;;8.27;5.63;;;;;;;5.82;48.35;100731.22;4856735;28;97387;-74
2021/03/07 10:18:22;;;;;;;9.10;6.57;;;;;;;5.88;48.28;100727.72;4872500;28;101605;-75
2021/03/07 10:20:49;;;;;;;12.27;7.07;;;;;;;5.80;48.11;100727.75;4877033;28;98342;-75
2021/03/07 10:23:15;;;;;;;10.87;7.37;;;;;;;5.94;48.12;100727.69;4866187;28;97494;-74
2021/03/07 10:25:42;;;;;;;10.70;7.30;;;;;;;5.92;47.91;100725.94;4877151;28;97016;-75
2021/03/07 10:28:10;;;;;;;13.77;7.80;;;;;;;5.94;47.69;100713.78;4845618;28;101301;-75
2021/03/07 10:30:44;;;;;;;12.53;7.10;;;;;;;6.01;47.72;100705.88;4855030;28;101257;-75
2021/03/07 10:33:26;;;;;;;18.77;8.50;;;;;;;6.01;47.72;100710.25;4859711;28;97164;-75
2021/03/07 10:36:08;;;;;;;12.73;8.50;;;;;;;6.02;47.82;100701.53;4854662;28;96989;-75
2021/03/07 10:38:40;;;;;;;12.20;8.73;;;;;;;6.08;47.82;100706.72;4847441;28;101416;-75
2021/03/07 10:41:25;;;;;;;15.50;8.68;;;;;;;5.93;47.54;100704.19;4865339;28;97532;-78
2021/03/07 10:43:53;;;;;;;13.90;8.13;;;;;;;5.88;47.83;100707.72;4847694;28;97408;-77
2021/03/07 10:46:51;;;;;;;15.50;8.80;;;;;;;5.93;47.60;100704.19;4870898;28;97426;-76
2021/03/07 10:49:18;;;;;;;14.27;8.77;;;;;;;5.90;47.83;100697.25;4846784;28;100449;-77
2021/03/07 10:51:44;;;;;;;13.03;7.30;;;;;;;5.93;47.72;100701.59;4867931;28;97345;-74
2021/03/07 10:54:10;;;;;;;9.33;6.67;;;;;;;5.96;48.08;100689.41;4864574;28;98538;-74
2021/03/07 10:56:40;;;;;;;11.37;7.40;;;;;;;6.11;47.91;100693.66;4864820;28;97415;-75
2021/03/07 10:59:07;;;;;;;14.80;8.77;;;;;;;6.27;47.69;100696.97;4840208;28;101719;-75
2021/03/07 11:01:33;;;;;;;12.63;8.87;;;;;;;6.25;47.69;100690.88;4865928;28;101557;-74
2021/03/07 11:03:59;;;;;;;13.13;7.47;;;;;;;6.34;47.53;100701.22;4838505;28;96890;-76
2021/03/07 11:06:24;;;;;;;10.53;7.70;;;;;;;6.30;46.98;100692.56;4879812;28;97367;-76
2021/03/07 11:08:50;;;;;;;8.47;5.97;;;;;;;6.22;46.74;100697.00;4850893;28;100800;-74
2021/03/07 11:11:17;;;;;;;8.33;6.10;;;;;;;6.06;47.18;100695.44;4850959;28;101052;-82
2021/03/07 11:13:42;;;;;;;12.60;7.43;;;;;;;6.09;47.25;100691.06;4853191;28;97415;-75
2021/03/07 11:16:08;;;;;;;10.10;6.57;;;;;;;6.22;46.93;100688.31;4880361;28;96842;-74
2021/03/07 11:18:34;;;;;;;7.97;5.93;;;;;;;6.19;47.61;100681.38;4851822;28;101767;-74
2021/03/07 11:21:00;;;;;;;15.63;6.97;;;;;;;6.28;46.88;100672.59;4854924;28;99144;-76
2021/03/07 11:23:25;;;;;;;10.77;6.43;;;;;;;6.29;47.56;100675.22;4873481;28;97305;-76
2021/03/07 11:25:51;;;;;;;11.00;7.60;;;;;;;6.21;47.45;100670.94;4855403;28;97308;-74
2021/03/07 11:28:17;;;;;;;11.57;6.90;;;;;;;6.27;47.39;100668.28;4868659;28;101010;-83
2021/03/07 11:30:43;;;;;;;20.13;8.07;;;;;;;6.15;46.55;100663.19;4857841;28;98076;-74
2021/03/07 11:33:08;;;;;;;11.23;7.03;;;;;;;6.19;46.80;100657.06;4877945;28;97946;-74